Time;durP1;ratioP1;P1;durP2;ratioP2;P2;SDS_P1;SDS_P2;PMS_P1;PMS_P2;Temp;Humidity;BMP_temperature;BMP_pressure;BME280_temperature;BME280_humidity;BME280_pressure;Samples;Min_cycle;Max_cycle;Signal;HPM_P1;HPM_P2
2023/02/26 00:01:29;;;;;;;8.85;8.25;;;;;;;;;;4995404;28;20064;-59
2023/02/26 00:03:56;;;;;;;8.80;8.20;;;;;;;;;;5002471;28;20034;-58
2023/02/26 00:06:23;;;;;;;9.00;8.40;;;;;;;;;;4996570;28;20110;-58
2023/02/26 00:08:48;;;;;;;9.23;8.63;;;;;;;;;;4997116;28;20456;-59
2023/02/26 00:11:14;;;;;;;8.95;8.35;;;;;;;;;;4993820;28;20038;-58
2023/02/26 00:13:42;;;;;;;9.52;8.93;;;;;;;;;;4995857;28;20113;-57
2023/02/26 00:16:25;;;;;;;9.20;8.60;;;;;;;;;;4994758;28;20041;-58
2023/02/26 00:18:51;;;;;;;9.80;9.10;;;;;;;;;;4994620;28;20065;-58
2023/02/26 00:21:19;;;;;;;8.40;7.90;;;;;;;;;;4996083;28;20068;-58
2023/02/26 00:23:45;;;;;;;9.38;8.65;;;;;;;;;;4996684;28;20061;-58
2023/02/26 00:26:10;;;;;;;8.85;8.25;;;;;;;;;;4994240;28;20080;-58
2023/02/26 00:28:36;;;;;;;8.40;7.90;;;;;;;;;;4993153;28;20042;-58
2023/02/26 00:31:02;;;;;;;8.27;7.78;;;;;;;;;;4993509;28;20045;-58
2023/02/26 00:33:28;;;;;;;8.82;8.23;;;;;;;;;;4995048;28;20049;-58
2023/02/26 00:36:00;;;;;;;9.07;8.48;;;;;;;;;;4994031;28;20073;-58
2023/02/26 00:38:31;;;;;;;8.80;8.23;;;;;;;;;;4995083;28;20055;-58
2023/02/26 00:40:56;;;;;;;9.85;9.20;;;;;;;;;;4994206;28;20044;-59
2023/02/26 00:43:23;;;;;;;8.95;8.35;;;;;;;;;;4994617;28;20758;-59
2023/02/26 00:46:09;;;;;;;8.88;8.27;;;;;;;;;;4992163;28;20046;-59
2023/02/26 00:49:05;;;;;;;8.43;7.93;;;;;;;;;;4995269;28;20062;-59
2023/02/26 00:51:43;;;;;;;9.10;8.50;;;;;;;;;;4993336;28;20465;-59
2023/02/26 00:54:18;;;;;;;8.57;7.97;;;;;;;;;;4996851;28;20044;-59
2023/02/26 00:56:43;;;;;;;9.20;8.30;;;;;;;;;;4993148;28;20057;-59
2023/02/26 00:59:08;;;;;;;8.30;7.80;;;;;;;;;;4996000;28;20801;-58
2023/02/26 01:01:34;;;;;;;9.07;8.48;;;;;;;;;;4992247;28;20455;-58
2023/02/26 01:03:59;;;;;;;8.13;7.63;;;;;;;;;;4993985;28;20116;-58
2023/02/26 01:06:29;;;;;;;8.50;8.00;;;;;;;;;;4994598;28;20060;-59
2023/02/26 01:09:07;;;;;;;9.40;8.80;;;;;;;;;;4990863;28;20064;-59
2023/02/26 01:11:34;;;;;;;8.40;7.90;;;;;;;;;;4991984;28;20073;-59
2023/02/26 01:14:00;;;;;;;8.50;8.00;;;;;;;;;;4992444;28;20046;-59
2023/02/26 01:16:27;;;;;;;9.10;8.50;;;;;;;;;;4990993;28;20664;-59
2023/02/26 01:19:17;;;;;;;8.80;8.02;;;;;;;;;;4992378;28;20044;-58
2023/02/26 01:21:50;;;;;;;8.60;8.07;;;;;;;;;;4966325;28;20485;-58
2023/02/26 01:24:18;;;;;;;11.40;8.43;;;;;;;;;;4992604;28;20057;-58
2023/02/26 01:26:44;;;;;;;9.20;8.60;;;;;;;;;;4993451;28;20038;-58
2023/02/26 01:29:09;;;;;;;8.98;8.38;;;;;;;;;;4992806;28;20049;-58
2023/02/26 01:32:03;;;;;;;9.43;8.73;;;;;;;;;;4994125;28;20036;-58
2023/02/26 01:34:39;;;;;;;8.68;8.07;;;;;;;;;;4991874;28;20025;-58
2023/02/26 01:37:18;;;;;;;9.90;9.10;;;;;;;;;;4992970;28;20040;-58
2023/02/26 01:39:55;;;;;;;8.95;8.35;;;;;;;;;;4994509;28;20065;-58
2023/02/26 01:42:24;;;;;;;9.65;9.05;;;;;;;;;;4993615;28;20030;-58
2023/02/26 01:44:58;;;;;;;8.63;8.02;;;;;;;;;;4992117;28;20031;-58
2023/02/26 01:47:39;;;;;;;8.68;8.07;;;;;;;;;;4994578;28;20480;-58
2023/02/26 01:50:10;;;;;;;;;;;;;;;;;;4997680;28;20104;-58
2023/02/26 01:52:47;;;;;;;8.32;7.82;;;;;;;;;;4997026;28;20094;-59
2023/02/26 01:55:22;;;;;;;8.98;8.38;;;;;;;;;;4994944;28;20148;-59
2023/02/26 01:57:50;;;;;;;8.63;8.13;;;;;;;;;;5004892;28;20057;-59
2023/02/26 02:00:16;;;;;;;8.52;7.95;;;;;;;;;;4993444;28;20044;-59
2023/02/26 02:02:42;;;;;;;8.73;8.15;;;;;;;;;;4996641;28;20542;-59
2023/02/26 02:05:38;;;;;;;8.65;8.10;;;;;;;;;;4997128;28;20038;-59
2023/02/26 02:08:04;;;;;;;8.90;8.27;;;;;;;;;;4990385;28;20054;-59
2023/02/26 02:10:31;;;;;;;9.00;8.43;;;;;;;;;;4995102;28;20539;-59
2023/02/26 02:13:18;;;;;;;9.60;9.00;;;;;;;;;;4995432;28;20073;-59
2023/02/26 02:16:05;;;;;;;8.73;8.18;;;;;;;;;;4997734;28;20038;-59
2023/02/26 02:18:59;;;;;;;9.30;8.70;;;;;;;;;;4997631;28;20431;-59
2023/02/26 02:21:49;;;;;;;9.50;8.90;;;;;;;;;;4996927;28;20062;-60
2023/02/26 02:24:24;;;;;;;8.50;8.00;;;;;;;;;;5002996;28;20460;-60
2023/02/26 02:26:58;;;;;;;9.48;8.88;;;;;;;;;;4997156;28;20039;-60
2023/02/26 02:29:52;;;;;;;8.65;8.05;;;;;;;;;;4994415;28;20167;-59
2023/02/26 02:32:27;;;;;;;8.68;8.15;;;;;;;;;;4994712;28;20049;-59
2023/02/26 02:35:10;;;;;;;9.00;8.40;;;;;;;;;;4998318;28;20553;-59
2023/02/26 02:37:45;;;;;;;9.15;8.55;;;;;;;;;;4996057;28;20415;-59
2023/02/26 02:40:19;;;;;;;9.25;8.65;;;;;;;;;;4994382;28;20042;-59
2023/02/26 02:42:48;;;;;;;8.52;8.02;;;;;;;;;;4997474;28;20045;-60
2023/02/26 02:45:25;;;;;;;8.95;8.35;;;;;;;;;;4993170;28;20038;-60
2023/02/26 02:48:00;;;;;;;9.57;8.98;;;;;;;;;;4994959;28;20033;-60
2023/02/26 02:50:31;;;;;;;8.80;8.20;;;;;;;;;;4998607;28;20442;-60
2023/02/26 02:53:02;;;;;;;8.57;8.07;;;;;;;;;;4995943;28;20121;-59
2023/02/26 02:55:38;;;;;;;8.70;8.13;;;;;;;;;;4997882;28;20112;-59
2023/02/26 02:58:10;;;;;;;8.85;8.25;;;;;;;;;;4996969;28;20040;-59
2023/02/26 03:00:37;;;;;;;;;;;;;;;;;;4996503;28;20034;-60
2023/02/26 03:03:26;;;;;;;9.48;8.80;;;;;;;;;;4996539;28;19968;-60
2023/02/26 03:05:52;;;;;;;9.05;8.45;;;;;;;;;;4994149;28;20530;-60
2023/02/26 03:08:21;;;;;;;9.45;8.85;;;;;;;;;;4996506;28;20228;-60
2023/02/26 03:10:47;;;;;;;8.15;7.65;;;;;;;;;;4995085;28;20065;-60
2023/02/26 03:13:18;;;;;;;9.05;8.45;;;;;;;;;;4995077;28;20119;-60
2023/02/26 03:16:30;;;;;;;8.60;8.10;;;;;;;;;;4996138;28;20041;-60
2023/02/26 03:19:28;;;;;;;8.43;7.93;;;;;;;;;;4945646;28;20062;-60
2023/02/26 03:22:12;;;;;;;8.65;8.05;;;;;;;;;;4945773;28;20090;-60
2023/02/26 03:24:55;;;;;;;8.88;8.32;;;;;;;;;;4984819;28;20046;-60
2023/02/26 03:27:40;;;;;;;8.80;8.20;;;;;;;;;;4994154;28;20073;-60
2023/02/26 03:30:29;;;;;;;8.55;8.05;;;;;;;;;;4997156;28;20053;-60
2023/02/26 03:33:01;;;;;;;9.00;8.40;;;;;;;;;;4995570;28;20246;-61
2023/02/26 03:35:37;;;;;;;9.00;8.40;;;;;;;;;;4994552;28;20030;-60
2023/02/26 03:38:08;;;;;;;9.90;9.30;;;;;;;;;;4994790;28;20129;-60
2023/02/26 03:40:49;;;;;;;8.73;8.13;;;;;;;;;;4994796;28;20046;-60
2023/02/26 03:43:20;;;;;;;8.85;8.25;;;;;;;;;;4995777;28;20045;-60
2023/02/26 03:45:49;;;;;;;9.30;8.70;;;;;;;;;;4996330;28;20448;-60
2023/02/26 03:48:18;;;;;;;10.80;9.77;;;;;;;;;;4994882;28;20030;-61
2023/02/26 03:50:48;;;;;;;9.13;8.52;;;;;;;;;;4996970;28;20057;-60
2023/02/26 03:53:25;;;;;;;9.25;8.65;;;;;;;;;;4992563;28;20080;-60
2023/02/26 03:55:58;;;;;;;8.60;8.07;;;;;;;;;;4996034;28;20038;-60
2023/02/26 03:58:23;;;;;;;9.30;8.70;;;;;;;;;;4994890;28;20034;-60
2023/02/26 04:01:02;;;;;;;9.32;8.73;;;;;;;;;;4992561;28;20034;-60
2023/02/26 04:03:35;;;;;;;9.60;9.00;;;;;;;;;;4994925;28;20034;-59
2023/02/26 04:06:01;;;;;;;9.40;8.80;;;;;;;;;;4996634;28;20041;-60
2023/02/26 04:08:28;;;;;;;8.70;8.10;;;;;;;;;;4996189;28;20032;-60
2023/02/26 04:10:57;;;;;;;9.70;9.10;;;;;;;;;;4996324;28;20112;-60
2023/02/26 04:13:23;;;;;;;9.18;8.57;;;;;;;;;;4993490;28;20042;-60
2023/02/26 04:15:48;;;;;;;8.82;8.23;;;;;;;;;;4996532;28;20100;-59
2023/02/26 04:18:14;;;;;;;9.40;8.80;;;;;;;;;;4993878;28;20089;-60
2023/02/26 04:20:39;;;;;;;9.77;9.18;;;;;;;;;;4997222;28;20529;-60
2023/02/26 04:23:05;;;;;;;9.27;8.68;;;;;;;;;;4994687;28;20030;-60
2023/02/26 04:25:30;;;;;;;9.27;8.68;;;;;;;;;;4993517;28;20030;-59
2023/02/26 04:27:56;;;;;;;8.80;8.20;;;;;;;;;;4993939;28;20117;-60
2023/02/26 04:30:21;;;;;;;9.57;8.98;;;;;;;;;;4993428;28;20073;-60
2023/02/26 04:32:47;;;;;;;9.07;8.48;;;;;;;;;;4995514;28;20068;-60
2023/02/26 04:35:12;;;;;;;9.20;8.60;;;;;;;;;;4992786;28;20373;-60
2023/02/26 04:37:38;;;;;;;8.93;8.32;;;;;;;;;;4993944;28;20046;-60
2023/02/26 04:40:04;;;;;;;10.32;9.73;;;;;;;;;;4995144;28;20058;-60
2023/02/26 04:42:29;;;;;;;8.98;8.32;;;;;;;;;;4991747;28;20121;-60
2023/02/26 04:44:55;;;;;;;10.50;9.70;;;;;;;;;;4993204;28;20196;-60
2023/02/26 04:47:20;;;;;;;10.32;9.68;;;;;;;;;;4993336;28;20431;-60
2023/02/26 04:49:46;;;;;;;9.88;9.20;;;;;;;;;;4989235;28;20554;-60
2023/02/26 04:52:11;;;;;;;9.80;9.20;;;;;;;;;;4993408;28;20892;-60
2023/02/26 04:54:36;;;;;;;9.48;8.88;;;;;;;;;;4992535;28;20045;-60
2023/02/26 04:57:02;;;;;;;9.50;8.90;;;;;;;;;;4993359;28;20037;-60
2023/02/26 04:59:28;;;;;;;9.52;8.93;;;;;;;;;;4994434;28;20531;-60
2023/02/26 05:01:53;;;;;;;10.73;10.10;;;;;;;;;;4994814;28;20083;-60
2023/02/26 05:04:18;;;;;;;9.75;9.15;;;;;;;;;;4990675;28;20034;-60
2023/02/26 05:06:44;;;;;;;9.50;8.90;;;;;;;;;;4989043;28;20030;-61
2023/02/26 05:09:09;;;;;;;9.20;8.60;;;;;;;;;;4990293;28;20049;-59
2023/02/26 05:11:35;;;;;;;9.40;8.80;;;;;;;;;;4993537;28;20030;-60
2023/02/26 05:14:00;;;;;;;10.65;9.98;;;;;;;;;;4993850;28;20665;-59
2023/02/26 05:16:25;;;;;;;9.95;9.35;;;;;;;;;;4992509;28;20459;-59
2023/02/26 05:18:51;;;;;;;9.98;9.38;;;;;;;;;;4992982;28;20476;-60
2023/02/26 05:21:16;;;;;;;9.75;9.15;;;;;;;;;;4991637;28;20522;-60
2023/02/26 05:23:41;;;;;;;9.95;9.27;;;;;;;;;;4995024;28;20026;-60
2023/02/26 05:26:07;;;;;;;10.18;9.43;;;;;;;;;;4996053;28;20034;-60
2023/02/26 05:28:32;;;;;;;9.90;9.30;;;;;;;;;;4995264;28;20038;-59
2023/02/26 05:30:58;;;;;;;9.40;8.70;;;;;;;;;;4995914;28;20030;-60
2023/02/26 05:33:24;;;;;;;10.13;9.48;;;;;;;;;;4996870;28;20049;-60
2023/02/26 05:35:50;;;;;;;10.10;9.40;;;;;;;;;;5000394;28;20541;-59
2023/02/26 05:38:16;;;;;;;10.50;9.90;;;;;;;;;;4999088;28;20125;-59
2023/02/26 05:40:41;;;;;;;10.02;9.43;;;;;;;;;;4999744;28;20031;-59
2023/02/26 05:43:06;;;;;;;11.05;10.35;;;;;;;;;;4995829;28;20678;-59
2023/02/26 05:45:32;;;;;;;9.60;9.00;;;;;;;;;;4994898;28;20042;-61
2023/02/26 05:47:57;;;;;;;10.15;9.55;;;;;;;;;;4998222;28;20030;-59
2023/02/26 05:50:22;;;;;;;9.57;8.98;;;;;;;;;;4999917;28;20041;-59
2023/02/26 05:52:48;;;;;;;10.95;10.15;;;;;;;;;;4998971;28;20088;-59
2023/02/26 05:55:13;;;;;;;10.55;9.95;;;;;;;;;;4996993;28;20493;-60
2023/02/26 05:57:38;;;;;;;9.70;9.10;;;;;;;;;;4998202;28;20691;-58
2023/02/26 06:00:06;;;;;;;10.35;9.68;;;;;;;;;;5002282;28;20471;-58
2023/02/26 06:02:31;;;;;;;9.60;9.00;;;;;;;;;;4997453;28;20034;-58
2023/02/26 06:04:57;;;;;;;11.30;10.60;;;;;;;;;;4996761;28;20153;-58
2023/02/26 06:07:23;;;;;;;30.92;9.75;;;;;;;;;;4995959;28;20030;-60
2023/02/26 06:09:48;;;;;;;10.20;9.50;;;;;;;;;;5001050;28;20034;-59
2023/02/26 06:12:14;;;;;;;10.55;9.85;;;;;;;;;;4997380;28;20167;-58
2023/02/26 06:14:39;;;;;;;9.10;8.50;;;;;;;;;;4993798;28;20115;-59
2023/02/26 06:17:05;;;;;;;9.98;9.38;;;;;;;;;;4994609;28;20289;-58
2023/02/26 06:19:31;;;;;;;10.52;9.93;;;;;;;;;;4994919;28;20045;-73
2023/02/26 06:21:56;;;;;;;10.48;9.77;;;;;;;;;;4999158;28;20037;-58
2023/02/26 06:24:22;;;;;;;10.35;9.75;;;;;;;;;;4995511;28;20034;-61
2023/02/26 06:26:47;;;;;;;9.70;9.10;;;;;;;;;;4995378;28;20065;-48
2023/02/26 06:29:13;;;;;;;9.48;8.88;;;;;;;;;;4996061;28;20038;-51
2023/02/26 06:31:38;;;;;;;10.05;9.40;;;;;;;;;;4995114;28;20049;-51
2023/02/26 06:34:03;;;;;;;9.80;9.20;;;;;;;;;;4996840;28;20050;-49
2023/02/26 06:36:29;;;;;;;9.80;9.20;;;;;;;;;;4993681;28;20445;-51
2023/02/26 06:38:54;;;;;;;9.43;8.82;;;;;;;;;;4997710;28;20038;-49
2023/02/26 06:41:20;;;;;;;9.70;9.10;;;;;;;;;;4995806;28;20038;-51
2023/02/26 06:43:45;;;;;;;9.57;8.98;;;;;;;;;;4995348;28;20085;-49
2023/02/26 06:46:10;;;;;;;9.30;8.70;;;;;;;;;;4993627;28;20030;-52
2023/02/26 06:48:36;;;;;;;9.30;8.70;;;;;;;;;;4993490;28;20522;-50
2023/02/26 06:51:01;;;;;;;9.00;8.40;;;;;;;;;;4994646;28;20058;-48
2023/02/26 06:53:27;;;;;;;9.55;8.95;;;;;;;;;;4991907;28;20037;-48
2023/02/26 06:55:52;;;;;;;9.63;8.95;;;;;;;;;;4994507;28;20468;-51
2023/02/26 06:58:19;;;;;;;9.57;8.98;;;;;;;;;;4993343;28;20038;-47
2023/02/26 07:00:45;;;;;;;8.68;8.10;;;;;;;;;;4993090;28;20046;-50
2023/02/26 07:03:13;;;;;;;9.65;9.05;;;;;;;;;;4993367;28;20049;-51
2023/02/26 07:05:38;;;;;;;9.40;8.80;;;;;;;;;;4994959;28;20100;-50
2023/02/26 07:08:04;;;;;;;9.38;8.77;;;;;;;;;;4995738;28;20038;-51
2023/02/26 07:10:31;;;;;;;10.00;9.40;;;;;;;;;;4996236;28;20112;-49
2023/02/26 07:12:57;;;;;;;9.73;9.13;;;;;;;;;;4993052;28;20034;-51
2023/02/26 07:15:22;;;;;;;9.70;9.10;;;;;;;;;;4993441;28;20053;-48
2023/02/26 07:17:47;;;;;;;9.70;9.10;;;;;;;;;;4996413;28;20042;-50
2023/02/26 07:20:13;;;;;;;9.50;8.80;;;;;;;;;;5003375;28;20030;-51
2023/02/26 07:22:38;;;;;;;8.85;8.25;;;;;;;;;;4992992;28;20031;-51
2023/02/26 07:25:04;;;;;;;9.95;9.35;;;;;;;;;;4997734;28;20033;-48
2023/02/26 07:27:32;;;;;;;9.10;8.50;;;;;;;;;;4990172;28;20050;-52
2023/02/26 07:29:57;;;;;;;9.32;8.73;;;;;;;;;;4994385;28;20921;-51
2023/02/26 07:32:22;;;;;;;9.77;9.18;;;;;;;;;;4992816;28;20053;-51
2023/02/26 07:34:48;;;;;;;9.40;8.80;;;;;;;;;;4992240;28;20117;-48
2023/02/26 07:37:13;;;;;;;8.80;8.20;;;;;;;;;;4992653;28;20192;-53
2023/02/26 07:39:39;;;;;;;9.20;8.60;;;;;;;;;;4997513;28;20048;-53
2023/02/26 07:42:04;;;;;;;8.75;8.20;;;;;;;;;;4993055;28;20053;-49
2023/02/26 07:44:29;;;;;;;8.30;7.80;;;;;;;;;;4992677;28;20096;-49
2023/02/26 07:46:55;;;;;;;9.13;8.52;;;;;;;;;;4989910;28;20025;-51
2023/02/26 07:49:20;;;;;;;10.23;9.50;;;;;;;;;;4995050;28;20069;-48
2023/02/26 07:51:47;;;;;;;9.18;8.57;;;;;;;;;;4992723;28;20148;-51
2023/02/26 07:54:13;;;;;;;8.60;8.10;;;;;;;;;;4994292;28;20485;-50
2023/02/26 07:56:40;;;;;;;9.35;8.73;;;;;;;;;;4991980;28;20038;-48
2023/02/26 07:59:05;;;;;;;9.05;8.45;;;;;;;;;;4994464;28;20046;-52
2023/02/26 08:01:31;;;;;;;8.95;8.35;;;;;;;;;;4994351;28;20045;-49
2023/02/26 08:03:56;;;;;;;9.25;8.65;;;;;;;;;;4996144;28;20070;-49
2023/02/26 08:06:22;;;;;;;9.27;8.68;;;;;;;;;;4992257;28;20092;-50
2023/02/26 08:08:47;;;;;;;8.25;7.75;;;;;;;;;;4992674;28;20491;-52
2023/02/26 08:11:13;;;;;;;8.82;8.25;;;;;;;;;;4992320;28;20848;-53
2023/02/26 08:13:38;;;;;;;9.20;8.60;;;;;;;;;;4993968;28;20057;-52
2023/02/26 08:16:04;;;;;;;8.27;7.78;;;;;;;;;;4996459;28;20030;-51
2023/02/26 08:18:29;;;;;;;8.77;8.20;;;;;;;;;;4994611;28;20045;-49
2023/02/26 08:20:54;;;;;;;9.02;8.35;;;;;;;;;;4990883;28;20464;-49
2023/02/26 08:23:20;;;;;;;8.88;8.27;;;;;;;;;;4993633;28;20109;-49
2023/02/26 08:25:45;;;;;;;8.75;8.15;;;;;;;;;;4994445;28;20026;-50
2023/02/26 08:28:11;;;;;;;8.43;7.93;;;;;;;;;;4997248;28;20025;-50
2023/02/26 08:30:37;;;;;;;8.90;8.30;;;;;;;;;;4993909;28;20042;-47
2023/02/26 08:33:02;;;;;;;8.73;8.18;;;;;;;;;;4990484;28;20456;-46
2023/02/26 08:35:28;;;;;;;8.90;8.30;;;;;;;;;;4992737;28;20037;-47
2023/02/26 08:37:53;;;;;;;9.82;9.05;;;;;;;;;;4992070;28;20178;-51
2023/02/26 08:40:19;;;;;;;8.85;8.25;;;;;;;;;;4992269;28;20463;-46
2023/02/26 08:42:45;;;;;;;8.82;8.23;;;;;;;;;;4992035;28;20638;-51
2023/02/26 08:45:10;;;;;;;8.73;8.13;;;;;;;;;;4991192;28;20030;-51
2023/02/26 08:47:36;;;;;;;8.93;8.32;;;;;;;;;;4991360;28;20034;-48
2023/02/26 08:50:03;;;;;;;8.75;8.23;;;;;;;;;;4989274;28;20096;-51
2023/02/26 08:52:29;;;;;;;9.63;8.75;;;;;;;;;;4993125;28;20113;-51
2023/02/26 08:54:54;;;;;;;12.88;8.52;;;;;;;;;;4989734;28;20593;-49
2023/02/26 08:57:20;;;;;;;8.90;8.30;;;;;;;;;;4992667;28;20038;-46
2023/02/26 08:59:45;;;;;;;9.63;9.02;;;;;;;;;;4993094;28;20030;-48
2023/02/26 09:02:11;;;;;;;9.00;8.40;;;;;;;;;;4994356;28;20457;-48
2023/02/26 09:04:37;;;;;;;9.23;8.63;;;;;;;;;;4997043;28;20027;-46
2023/02/26 09:07:02;;;;;;;11.93;8.75;;;;;;;;;;4997108;28;20060;-49
2023/02/26 09:09:28;;;;;;;8.25;7.75;;;;;;;;;;4994454;28;20114;-50
2023/02/26 09:11:53;;;;;;;8.60;8.00;;;;;;;;;;4997756;28;20034;-50
2023/02/26 09:14:19;;;;;;;8.35;7.85;;;;;;;;;;5000972;28;20034;-47
2023/02/26 09:16:44;;;;;;;8.50;8.00;;;;;;;;;;4994076;28;20515;-47
2023/02/26 09:19:10;;;;;;;8.88;8.27;;;;;;;;;;4994756;28;20034;-47
2023/02/26 09:21:35;;;;;;;9.05;8.45;;;;;;;;;;4994068;28;20041;-47
2023/02/26 09:24:01;;;;;;;8.73;8.13;;;;;;;;;;4995231;28;20038;-47
2023/02/26 09:26:26;;;;;;;9.30;8.70;;;;;;;;;;4995716;28;20027;-51
2023/02/26 09:28:52;;;;;;;8.75;8.15;;;;;;;;;;4995943;28;20097;-48
2023/02/26 09:31:17;;;;;;;9.13;8.52;;;;;;;;;;4997997;28;20096;-48
2023/02/26 09:33:42;;;;;;;8.98;8.38;;;;;;;;;;4995300;28;20428;-47
2023/02/26 09:36:08;;;;;;;9.23;8.63;;;;;;;;;;4994843;28;20031;-50
2023/02/26 09:38:37;;;;;;;9.70;9.10;;;;;;;;;;4996797;28;20117;-49
2023/02/26 09:41:05;;;;;;;9.80;9.20;;;;;;;;;;4993249;28;20057;-47
2023/02/26 09:43:59;;;;;;;9.88;9.27;;;;;;;;;;4995602;28;20025;-47
2023/02/26 09:46:31;;;;;;;9.77;9.18;;;;;;;;;;4994406;28;20072;-48
2023/02/26 09:49:12;;;;;;;10.43;9.82;;;;;;;;;;4995681;28;20046;-47
2023/02/26 09:51:38;;;;;;;10.45;9.85;;;;;;;;;;4996697;28;20122;-49
2023/02/26 09:54:14;;;;;;;10.98;10.27;;;;;;;;;;4997515;28;20042;-48
2023/02/26 09:56:40;;;;;;;10.80;10.13;;;;;;;;;;5003641;28;20073;-49
2023/02/26 09:59:08;;;;;;;10.32;9.73;;;;;;;;;;4995626;28;20115;-46
2023/02/26 10:01:42;;;;;;;10.15;9.55;;;;;;;;;;4995446;28;20078;-47
2023/02/26 10:04:30;;;;;;;9.50;8.90;;;;;;;;;;4995193;28;20060;-47
2023/02/26 10:07:40;;;;;;;9.75;9.15;;;;;;;;;;4996515;28;20066;-46
2023/02/26 10:10:38;;;;;;;9.73;9.13;;;;;;;;;;4998553;28;20048;-48
2023/02/26 10:13:04;;;;;;;8.55;8.05;;;;;;;;;;4993974;28;20046;-48
2023/02/26 10:15:37;;;;;;;8.98;8.38;;;;;;;;;;4998763;28;20042;-47
2023/02/26 10:18:09;;;;;;;9.93;9.32;;;;;;;;;;5003901;28;20069;-48
2023/02/26 10:20:57;;;;;;;11.27;10.38;;;;;;;;;;4998428;28;20030;-47
2023/02/26 10:23:34;;;;;;;11.15;10.45;;;;;;;;;;4996316;28;20052;-46
2023/02/26 10:26:22;;;;;;;11.07;10.38;;;;;;;;;;4999617;28;20116;-45
2023/02/26 10:28:58;;;;;;;11.27;10.57;;;;;;;;;;4995259;28;20471;-46
2023/02/26 10:31:47;;;;;;;11.15;10.45;;;;;;;;;;4995458;28;20069;-45
2023/02/26 10:34:32;;;;;;;10.35;9.75;;;;;;;;;;4996979;28;20034;-47
2023/02/26 10:37:02;;;;;;;10.23;9.63;;;;;;;;;;4996298;28;20576;-47
2023/02/26 10:39:52;;;;;;;10.40;9.65;;;;;;;;;;4996726;28;20055;-46
2023/02/26 10:42:35;;;;;;;9.82;9.23;;;;;;;;;;4996773;28;20042;-50
2023/02/26 10:45:30;;;;;;;10.38;9.77;;;;;;;;;;4996396;28;20033;-47
2023/02/26 10:48:08;;;;;;;10.95;10.25;;;;;;;;;;4995676;28;20072;-46
2023/02/26 10:50:34;;;;;;;10.82;10.13;;;;;;;;;;4996390;28;20029;-48
2023/02/26 10:53:00;;;;;;;11.43;10.50;;;;;;;;;;4999993;28;20100;-45
2023/02/26 10:55:47;;;;;;;10.43;9.82;;;;;;;;;;4997314;28;20045;-47
2023/02/26 10:58:16;;;;;;;10.30;9.70;;;;;;;;;;4998992;28;20109;-46
2023/02/26 11:00:45;;;;;;;11.27;10.57;;;;;;;;;;4998706;28;20069;-46
2023/02/26 11:03:19;;;;;;;10.30;9.70;;;;;;;;;;4996156;28;20041;-45
2023/02/26 11:05:45;;;;;;;9.85;9.25;;;;;;;;;;4992842;28;20429;-45
2023/02/26 11:08:24;;;;;;;11.13;10.43;;;;;;;;;;4998266;28;20366;-45
2023/02/26 11:10:52;;;;;;;10.98;10.27;;;;;;;;;;4993719;28;20036;-47
2023/02/26 11:13:19;;;;;;;10.80;10.18;;;;;;;;;;4995908;28;20045;-46
2023/02/26 11:15:47;;;;;;;11.30;10.60;;;;;;;;;;4995689;28;20030;-48
2023/02/26 11:18:19;;;;;;;10.25;9.65;;;;;;;;;;4993969;28;20147;-46
2023/02/26 11:20:46;;;;;;;10.63;9.93;;;;;;;;;;4992272;28;20106;-50
2023/02/26 11:23:16;;;;;;;9.80;9.20;;;;;;;;;;4995535;28;20388;-46
2023/02/26 11:25:43;;;;;;;10.27;9.67;;;;;;;;;;4993019;28;20515;-48
2023/02/26 11:28:21;;;;;;;10.77;10.07;;;;;;;;;;4993198;28;20487;-49
2023/02/26 11:30:47;;;;;;;10.38;9.70;;;;;;;;;;4993702;28;20392;-52
2023/02/26 11:33:21;;;;;;;10.93;10.27;;;;;;;;;;4994974;28;20041;-47
2023/02/26 11:35:47;;;;;;;10.35;9.75;;;;;;;;;;4992768;28;20389;-46
2023/02/26 11:38:20;;;;;;;11.48;10.77;;;;;;;;;;4991886;28;20034;-50
2023/02/26 11:40:51;;;;;;;11.82;11.13;;;;;;;;;;4997301;28;20058;-47
2023/02/26 11:43:19;;;;;;;11.10;10.40;;;;;;;;;;4994272;28;20044;-46
2023/02/26 11:45:51;;;;;;;12.15;11.45;;;;;;;;;;4993408;28;20033;-47
2023/02/26 11:48:23;;;;;;;11.88;11.18;;;;;;;;;;4996501;28;20118;-47
2023/02/26 11:50:53;;;;;;;11.10;10.40;;;;;;;;;;4994370;28;20034;-47
2023/02/26 11:53:33;;;;;;;11.93;11.23;;;;;;;;;;4997686;28;20048;-50
2023/02/26 11:56:02;;;;;;;11.80;11.10;;;;;;;;;;4991767;28;20415;-46
2023/02/26 11:58:34;;;;;;;11.65;10.95;;;;;;;;;;4991188;28;20065;-47
2023/02/26 12:01:01;;;;;;;12.23;11.48;;;;;;;;;;4998191;28;20129;-45
2023/02/26 12:03:30;;;;;;;10.73;10.07;;;;;;;;;;4991004;28;20061;-46
2023/02/26 12:05:57;;;;;;;11.15;10.45;;;;;;;;;;4990877;28;20042;-48
2023/02/26 12:08:37;;;;;;;12.95;12.20;;;;;;;;;;4992738;28;20034;-47
2023/02/26 12:11:22;;;;;;;11.38;10.68;;;;;;;;;;4994483;28;20057;-45
2023/02/26 12:14:06;;;;;;;11.30;10.60;;;;;;;;;;4992719;28;20404;-46
2023/02/26 12:17:08;;;;;;;11.70;10.82;;;;;;;;;;4993769;28;20480;-49
2023/02/26 12:19:41;;;;;;;11.20;10.50;;;;;;;;;;4993346;28;20141;-47
2023/02/26 12:22:22;;;;;;;11.43;10.73;;;;;;;;;;4995880;28;20037;-46
2023/02/26 12:25:10;;;;;;;10.82;10.18;;;;;;;;;;4991591;28;20478;-47
2023/02/26 12:27:47;;;;;;;10.88;10.23;;;;;;;;;;4992713;28;20092;-48
2023/02/26 12:30:31;;;;;;;10.50;9.90;;;;;;;;;;4997146;28;20037;-46
2023/02/26 12:33:35;;;;;;;10.98;10.30;;;;;;;;;;4990636;28;20065;-46
2023/02/26 12:36:28;;;;;;;10.50;9.90;;;;;;;;;;4976380;28;20042;-47
2023/02/26 12:39:30;;;;;;;11.00;9.85;;;;;;;;;;4990908;28;20449;-47
2023/02/26 12:42:27;;;;;;;11.50;10.80;;;;;;;;;;4992413;28;20460;-45
2023/02/26 12:45:21;;;;;;;10.10;9.50;;;;;;;;;;4988951;28;20041;-47
2023/02/26 12:47:57;;;;;;;10.48;9.77;;;;;;;;;;4991453;28;20197;-47
2023/02/26 12:50:42;;;;;;;9.60;9.00;;;;;;;;;;4992571;28;20042;-48
2023/02/26 12:53:26;;;;;;;10.63;10.00;;;;;;;;;;4992875;28;20341;-48
2023/02/26 12:56:03;;;;;;;10.30;9.70;;;;;;;;;;4993640;28;20113;-46
2023/02/26 12:58:43;;;;;;;9.77;9.18;;;;;;;;;;4989896;28;20053;-47
2023/02/26 13:01:17;;;;;;;11.70;11.00;;;;;;;;;;4993302;28;20049;-47
2023/02/26 13:04:14;;;;;;;10.13;9.52;;;;;;;;;;4989415;28;20038;-49
2023/02/26 13:07:00;;;;;;;10.77;10.15;;;;;;;;;;4995275;28;20034;-48
2023/02/26 13:09:44;;;;;;;10.95;10.25;;;;;;;;;;4996929;28;20038;-46
2023/02/26 13:12:20;;;;;;;9.90;9.30;;;;;;;;;;4993839;28;20461;-47
2023/02/26 13:15:04;;;;;;;10.88;10.18;;;;;;;;;;4989618;28;20046;-47
2023/02/26 13:17:53;;;;;;;11.05;10.35;;;;;;;;;;4994895;28;20037;-46
2023/02/26 13:20:23;;;;;;;10.15;9.55;;;;;;;;;;4993299;28;20499;-46
2023/02/26 13:22:56;;;;;;;10.77;10.13;;;;;;;;;;4991244;28;20117;-47
2023/02/26 13:25:47;;;;;;;11.07;10.32;;;;;;;;;;4991814;28;20789;-47
2023/02/26 13:28:45;;;;;;;10.60;9.95;;;;;;;;;;4991763;28;20042;-48
2023/02/26 13:31:23;;;;;;;10.07;9.48;;;;;;;;;;4964124;28;20473;-46
2023/02/26 13:33:50;;;;;;;10.02;9.43;;;;;;;;;;4991570;28;20034;-47
2023/02/26 13:36:18;;;;;;;10.38;9.77;;;;;;;;;;4992292;28;20045;-48
2023/02/26 13:39:20;;;;;;;10.68;10.07;;;;;;;;;;4993924;28;20077;-48
2023/02/26 13:42:00;;;;;;;10.60;10.00;;;;;;;;;;4989567;28;20084;-48
2023/02/26 13:44:56;;;;;;;12.27;11.48;;;;;;;;;;4994575;28;20042;-46
2023/02/26 13:47:56;;;;;;;11.80;11.10;;;;;;;;;;4993646;28;20030;-46
2023/02/26 13:50:40;;;;;;;11.05;10.35;;;;;;;;;;4964663;28;20054;-45
2023/02/26 13:53:28;;;;;;;11.43;10.73;;;;;;;;;;4996793;28;20035;-46
2023/02/26 13:56:06;;;;;;;11.65;10.95;;;;;;;;;;4994299;28;20040;-47
2023/02/26 13:58:43;;;;;;;11.75;11.05;;;;;;;;;;4994394;28;20044;-45
2023/02/26 14:01:27;;;;;;;11.35;10.65;;;;;;;;;;4993808;28;20067;-46
2023/02/26 14:04:06;;;;;;;11.40;10.70;;;;;;;;;;4994977;28;20116;-50
2023/02/26 14:06:42;;;;;;;12.70;11.68;;;;;;;;;;4997228;28;20025;-47
2023/02/26 14:09:20;;;;;;;11.43;10.73;;;;;;;;;;4999499;28;20466;-47
2023/02/26 14:12:00;;;;;;;11.75;11.05;;;;;;;;;;4995463;28;20164;-51
2023/02/26 14:14:39;;;;;;;11.30;10.60;;;;;;;;;;4996615;28;20062;-46
2023/02/26 14:17:06;;;;;;;11.57;10.88;;;;;;;;;;4995198;28;20121;-47
2023/02/26 14:19:52;;;;;;;10.63;10.02;;;;;;;;;;4999063;28;20578;-53
2023/02/26 14:22:31;;;;;;;11.93;11.23;;;;;;;;;;4994735;28;20120;-46
2023/02/26 14:24:57;;;;;;;12.13;11.43;;;;;;;;;;4997698;28;20042;-54
2023/02/26 14:27:33;;;;;;;10.90;10.23;;;;;;;;;;4999342;28;20087;-55
2023/02/26 14:30:08;;;;;;;11.60;10.90;;;;;;;;;;4996264;28;20104;-54
2023/02/26 14:33:05;;;;;;;11.02;10.35;;;;;;;;;;4993347;28;20666;-51
2023/02/26 14:35:39;;;;;;;11.52;10.82;;;;;;;;;;4996030;28;20512;-52
2023/02/26 14:38:21;;;;;;;10.70;10.07;;;;;;;;;;4995290;28;20117;-55
2023/02/26 14:41:03;;;;;;;11.50;10.80;;;;;;;;;;4998287;28;20061;-53
2023/02/26 14:43:39;;;;;;;10.63;10.02;;;;;;;;;;4995632;28;20033;-52
2023/02/26 14:46:06;;;;;;;11.13;10.43;;;;;;;;;;4996150;28;20026;-53
2023/02/26 14:48:32;;;;;;;10.63;10.02;;;;;;;;;;4998961;28;20599;-53
2023/02/26 14:51:01;;;;;;;10.90;10.23;;;;;;;;;;4993704;28;20068;-54
2023/02/26 14:53:55;;;;;;;10.82;10.20;;;;;;;;;;4994115;28;20511;-51
2023/02/26 14:56:46;;;;;;;9.82;9.23;;;;;;;;;;4996776;28;20042;-54
2023/02/26 14:59:19;;;;;;;10.73;10.02;;;;;;;;;;4994305;28;20483;-55
2023/02/26 15:02:06;;;;;;;10.10;9.50;;;;;;;;;;4997540;28;20121;-51
2023/02/26 15:04:53;;;;;;;10.40;9.80;;;;;;;;;;4996854;28;20061;-52
2023/02/26 15:07:32;;;;;;;10.48;9.77;;;;;;;;;;4995440;28;20125;-54